CYXN

Whale Cove Airport

Whale Cove, Canada
METAR CYXN 212000Z 19015KT 15SM SCT015TCU BKN090 13/09 A3022 RMK TCU3AC2 13.8/6.2/0.0/LAST STFD OBS/NEXT 221400Z -VIA CYWG FIC- SLP234
Observed Flight Rules
Jul-21 @ 20:00 UTC (3 hours ago) Visual Flight Rules
Wind Visibility Clouds
190° at 15 knots 15 miles
  • Scattered at 1,500' AGL
  • Broken at 9,000' AGL
Temperatures Readings
Current 13°C / 55°F
Dewpoint 9°C / 48°F
Humidity 77%
Altimeter 30.22" Hg
Pressure 1023.4 hPa
Elevation 20
METAR CYXN 212000Z 19015KT 15SM SCT015TCU BKN090 13/09 A3022 RMK TCU3AC2 13.8/6.2/0.0/LAST STFD OBS/NEXT 221400Z -VIA CYWG FIC- SLP234
Observed Flight Rules
Jul-21 @ 20:00 UTC
(3 hours ago)
VFR
Wind Visibility
190° at 15 knots 15 miles
Clouds
  • Scattered at 1,500' AGL
  • Broken at 9,000' AGL
Temperature Dewpoint
13°C / 55°F 9°C / 48°F
Humidity Altimeter Pressure
77% 30.22" Hg 1023.4 hPa